Map

Track Data

SID SEASON NUMBER BASIN SUBBASIN NAME ISO_TIME NATURE LAT LON WMO_WIND WMO_PRES WMO_AGENCY TRACK_TYPE DIST2LAND LANDFALL IFLAG USA_AGENCY USA_ATCF_ID USA_LAT USA_LON USA_RECORD USA_STATUS USA_WIND USA_PRES USA_SSHS USA_R34_NE USA_R34_SE USA_R34_SW USA_R34_NW USA_R50_NE USA_R50_SE USA_R50_SW USA_R50_NW USA_R64_NE USA_R64_SE USA_R64_SW USA_R64_NW USA_POCI USA_ROCI USA_RMW USA_EYE TOKYO_LAT TOKYO_LON TOKYO_GRADE TOKYO_WIND TOKYO_PRES TOKYO_R50_DIR TOKYO_R50_LONG TOKYO_R50_SHORT TOKYO_R30_DIR TOKYO_R30_LONG TOKYO_R30_SHORT TOKYO_LAND CMA_LAT CMA_LON CMA_CAT CMA_WIND CMA_PRES HKO_LAT HKO_LON HKO_CAT HKO_WIND HKO_PRES NEWDELHI_LAT NEWDELHI_LON NEWDELHI_GRADE NEWDELHI_WIND NEWDELHI_PRES NEWDELHI_CI NEWDELHI_DP NEWDELHI_POCI REUNION_LAT REUNION_LON REUNION_TYPE REUNION_WIND REUNION_PRES REUNION_TNUM REUNION_CI REUNION_RMW REUNION_R34_NE REUNION_R34_SE REUNION_R34_SW REUNION_R34_NW REUNION_R50_NE REUNION_R50_SE REUNION_R50_SW REUNION_R50_NW REUNION_R64_NE REUNION_R64_SE REUNION_R64_SW REUNION_R64_NW BOM_LAT BOM_LON BOM_TYPE BOM_WIND BOM_PRES BOM_TNUM BOM_CI BOM_RMW BOM_R34_NE BOM_R34_SE BOM_R34_SW BOM_R34_NW BOM_R50_NE BOM_R50_SE BOM_R50_SW BOM_R50_NW BOM_R64_NE BOM_R64_SE BOM_R64_SW BOM_R64_NW BOM_ROCI BOM_POCI BOM_EYE BOM_POS_METHOD BOM_PRES_METHOD NADI_LAT NADI_LON NADI_CAT NADI_WIND NADI_PRES WELLINGTON_LAT WELLINGTON_LON WELLINGTON_WIND WELLINGTON_PRES DS824_LAT DS824_LON DS824_STAGE DS824_WIND DS824_PRES TD9636_LAT TD9636_LON TD9636_STAGE TD9636_WIND TD9636_PRES TD9635_LAT TD9635_LON TD9635_WIND TD9635_PRES TD9635_ROCI NEUMANN_LAT NEUMANN_LON NEUMANN_CLASS NEUMANN_WIND NEUMANN_PRES MLC_LAT MLC_LON MLC_CLASS MLC_WIND MLC_PRES USA_GUST BOM_GUST BOM_GUST_PER REUNION_GUST REUNION_GUST_PER USA_SEAHGT USA_SEARAD_NE USA_SEARAD_SE USA_SEARAD_SW USA_SEARAD_NW STORM_SPEED STORM_DIR
1929115N08130 1929 28 WP MM NOT_NAMED 1929-04-24 22:00:00 NR 8.30000 130.200 main 402 372 __________O___ -1 8.30000 130.200 4 10 297
1929115N08130 1929 28 WP MM NOT_NAMED 1929-04-25 00:00:00 NR 8.45946 129.887 main 374 328 __________P___ -1 8.45946 129.887 4 10 298
1929115N08130 1929 28 WP MM NOT_NAMED 1929-04-25 03:00:00 NR 8.70112 129.423 main 328 293 __________P___ -1 8.70112 129.423 4 10 298
1929115N08130 1929 28 WP MM NOT_NAMED 1929-04-25 06:00:00 NR 8.94975 128.971 main 293 245 __________P___ -1 8.94975 128.971 4 10 300
1929115N08130 1929 28 WP MM NOT_NAMED 1929-04-25 09:00:00 NR 9.20992 128.538 main 245 237 __________P___ -1 9.20992 128.538 4 10 302
1929115N08130 1929 28 WP MM NOT_NAMED 1929-04-25 10:00:00 NR 9.30000 128.400 main 237 211 __________O___ -1 9.30000 128.400 4 10 305
1929115N08130 1929 28 WP MM NOT_NAMED 1929-04-25 12:00:00 NR 9.48631 128.133 main 211 184 __________P___ -1 9.48631 128.133 4 10 307
1929115N08130 1929 28 WP MM NOT_NAMED 1929-04-25 15:00:00 NR 9.78453 127.758 main 188 165 __________P___ -1 9.78453 127.758 4 9 311
1929115N08130 1929 28 WP MM NOT_NAMED 1929-04-25 18:00:00 NR 10.1108 127.413 main 165 152 __________P___ -1 10.1108 127.413 4 9 317
1929115N08130 1929 28 WP MM NOT_NAMED 1929-04-25 21:00:00 NR 10.4712 127.098 main 152 138 __________P___ -1 10.4712 127.098 4 10 320
1929115N08130 1929 28 WP MM NOT_NAMED 1929-04-25 22:00:00 NR 10.6000 127.000 main 138 109 __________O___ -1 10.6000 127.000 4 10 323
1929115N08130 1929 28 WP MM NOT_NAMED 1929-04-26 00:00:00 NR 10.8635 126.800 main 109 83 __________P___ -1 10.8635 126.800 4 10 326
1929115N08130 1929 28 WP MM NOT_NAMED 1929-04-26 03:00:00 NR 11.2902 126.525 main 83 79 __________P___ -1 11.2902 126.525 4 10 330
1929115N08130 1929 28 WP MM NOT_NAMED 1929-04-26 06:00:00 NR 11.7491 126.280 main 83 65 __________P___ -1 11.7491 126.280 4 11 334
1929115N08130 1929 28 WP MM NOT_NAMED 1929-04-26 09:00:00 NR 12.2338 126.065 main 65 55 __________P___ -1 12.2338 126.065 4 11 337
1929115N08130 1929 28 WP MM NOT_NAMED 1929-04-26 10:00:00 NR 12.4000 126.000 main 58 54 __________O___ -1 12.4000 126.000 4 11 337
1929115N08130 1929 28 WP MM NOT_NAMED 1929-04-26 12:00:00 NR 12.7354 125.851 main 70 70 __________P___ -1 12.7354 125.851 4 11 338
1929115N08130 1929 28 WP MM NOT_NAMED 1929-04-26 15:00:00 NR 13.2577 125.653 main 104 99 __________P___ -1 13.2577 125.653 4 11 342
1929115N08130 1929 28 WP MM NOT_NAMED 1929-04-26 18:00:00 NR 13.7916 125.500 main 118 110 __________P___ -1 13.7916 125.500 4 11 348
1929115N08130 1929 28 WP MM NOT_NAMED 1929-04-26 21:00:00 NR 14.3246 125.412 main 116 121 __________P___ -1 14.3246 125.412 4 11 352
1929115N08130 1929 28 WP MM NOT_NAMED 1929-04-26 22:00:00 NR 14.5000 125.400 main 127 127 __________O___ -1 14.5000 125.400 4 11 359
1929115N08130 1929 28 WP MM NOT_NAMED 1929-04-27 00:00:00 NR 14.8494 125.391 main 147 155 __________P___ -1 14.8494 125.391 4 10 3
1929115N08130 1929 28 WP MM NOT_NAMED 1929-04-27 03:00:00 NR 15.3675 125.440 main 196 196 __________P___ -1 15.3675 125.440 4 10 9
1929115N08130 1929 28 WP MM NOT_NAMED 1929-04-27 06:00:00 NR 15.8701 125.557 main 254 254 __________P___ -1 15.8701 125.557 4 10 16
1929115N08130 1929 28 WP MM NOT_NAMED 1929-04-27 09:00:00 NR 16.3479 125.731 main 298 307 __________P___ -1 16.3479 125.731 4 10 20
1929115N08130 1929 28 WP MM NOT_NAMED 1929-04-27 10:00:00 NR 16.5000 125.800 main 322 322 __________O___ -1 16.5000 125.800 4 10 23
1929115N08130 1929 28 WP MM NOT_NAMED 1929-04-27 12:00:00 NR 16.7973 125.933 main 357 357 __________P___ -1 16.7973 125.933 4 10 27
1929115N08130 1929 28 WP MM NOT_NAMED 1929-04-27 15:00:00 NR 17.2183 126.176 main 393 393 __________P___ -1 17.2183 126.176 4 10 32
1929115N08130 1929 28 WP MM NOT_NAMED 1929-04-27 18:00:00 NR 17.6119 126.464 main 430 430 __________P___ -1 17.6119 126.464 4 10 37
1929115N08130 1929 28 WP MM NOT_NAMED 1929-04-27 21:00:00 NR 17.9816 126.786 main 469 469 __________P___ -1 17.9816 126.786 4 10 40
1929115N08130 1929 28 WP MM NOT_NAMED 1929-04-27 22:00:00 NR 18.1000 126.900 main 482 482 __________O___ -1 18.1000 126.900 7 10 41
1929115N08130 1929 28 WP MM NOT_NAMED 1929-04-28 00:00:00 NR 18.3416 127.119 main 506 506 __________P___ -1 18.3416 127.119 7 10 43
1929115N08130 1929 28 WP MM NOT_NAMED 1929-04-28 03:00:00 NR 18.6852 127.474 main 549 549 __________P___ -1 18.6852 127.474 7 10 46
1929115N08130 1929 28 WP MM NOT_NAMED 1929-04-28 06:00:00 NR 19.0064 127.855 main 593 593 __________P___ -1 19.0064 127.855 7 10 50
1929115N08130 1929 28 WP MM NOT_NAMED 1929-04-28 09:00:00 NR 19.3053 128.260 main 639 639 __________P___ -1 19.3053 128.260 7 10 53
1929115N08130 1929 28 WP MM NOT_NAMED 1929-04-28 10:00:00 NR 19.4000 128.400 main 651 651 __________O___ -1 19.4000 128.400 7 10 55
1929115N08130 1929 28 WP MM NOT_NAMED 1929-04-28 12:00:00 NR 19.5823 128.686 main 686 686 __________P___ -1 19.5823 128.686 7 10 57
1929115N08130 1929 28 WP MM NOT_NAMED 1929-04-28 15:00:00 NR 19.8406 129.129 main 731 743 __________P___ -1 19.8406 129.129 7 10 59
1929115N08130 1929 28 WP MM NOT_NAMED 1929-04-28 18:00:00 NR 20.0855 129.583 main 789 789 __________P___ -1 20.0855 129.583 7 10 61
1929115N08130 1929 28 WP MM NOT_NAMED 1929-04-28 21:00:00 NR 20.3221 130.045 main 835 845 __________P___ -1 20.3221 130.045 7 10 61
1929115N08130 1929 28 WP MM NOT_NAMED 1929-04-28 22:00:00 NR 20.4000 130.200 main 858 __________O___ -1 20.4000 130.200 7 10 61

Digital Typhoon Data and Search

About IBTrACS Database

This database is a web-friendly format of International Best Track Archive for Climate Stewardship (IBTrACS), a global best track data archive curated by NOAA dating back to 1842.

Updated: 2021-12-03